Time;durP1;ratioP1;P1;durP2;ratioP2;P2;SDS_P1;SDS_P2;PMS_P1;PMS_P2;Temp;Humidity;BMP_temperature;BMP_pressure;BME280_temperature;BME280_humidity;BME280_pressure;Samples;Min_cycle;Max_cycle;Signal;HPM_P1;HPM_P2
2022/04/11 00:01:00;;;;;;;23.02;10.57;;;;;;;6.32;82.20;101920.03;5015457;28;20511;-43
2022/04/11 00:03:25;;;;;;;19.77;10.95;;;;;;;6.30;83.13;101913.16;5014287;28;20013;-43
2022/04/11 00:05:50;;;;;;;22.58;10.65;;;;;;;6.25;82.78;101910.81;5015242;28;20475;-42
2022/04/11 00:08:17;;;;;;;21.67;11.73;;;;;;;6.24;82.72;101903.78;5015909;28;20025;-40
2022/04/11 00:10:43;;;;;;;21.42;10.55;;;;;;;6.22;83.16;101907.53;5017218;28;20044;-41
2022/04/11 00:13:08;;;;;;;27.88;11.30;;;;;;;6.19;83.74;101903.28;5019491;28;20033;-44
2022/04/11 00:15:34;;;;;;;25.65;11.45;;;;;;;6.16;83.73;101901.69;5018776;28;20033;-44
2022/04/11 00:18:02;;;;;;;22.60;11.65;;;;;;;6.17;84.19;101894.56;5019634;28;20021;-43
2022/04/11 00:20:28;;;;;;;23.67;11.45;;;;;;;6.15;83.80;101899.16;5001769;28;20037;-42
2022/04/11 00:22:53;;;;;;;25.48;11.73;;;;;;;6.13;83.68;101898.41;5018934;28;20107;-45
2022/04/11 00:25:19;;;;;;;22.40;12.18;;;;;;;6.14;85.10;101908.03;5020208;28;20140;-45
2022/04/11 00:27:44;;;;;;;24.85;11.98;;;;;;;6.11;83.40;101898.50;5019330;28;20400;-43
2022/04/11 00:30:10;;;;;;;28.90;12.00;;;;;;;6.07;83.40;101891.69;5018784;28;20108;-46
2022/04/11 00:32:40;;;;;;;21.77;12.23;;;;;;;6.08;84.51;101887.28;5018175;28;20072;-43
2022/04/11 00:35:06;;;;;;;22.95;12.50;;;;;;;6.05;83.50;101882.16;5019002;28;20373;-47
2022/04/11 00:37:32;;;;;;;25.52;13.07;;;;;;;6.04;82.66;101875.16;5018874;28;20025;-44
2022/04/11 00:39:57;;;;;;;25.90;13.40;;;;;;;6.04;84.56;101880.47;5019340;28;20028;-47
2022/04/11 00:42:26;;;;;;;28.35;13.65;;;;;;;6.03;84.19;101876.13;5018862;28;20025;-43
2022/04/11 00:44:52;;;;;;;25.63;14.38;;;;;;;6.04;84.90;101869.84;5018909;28;20568;-44
2022/04/11 00:47:17;;;;;;;25.40;14.07;;;;;;;6.05;84.51;101869.75;5018959;28;20112;-45
2022/04/11 00:49:43;;;;;;;33.70;13.98;;;;;;;6.01;83.03;101868.28;5018467;28;20684;-42
2022/04/11 00:52:08;;;;;;;25.73;13.70;;;;;;;6.05;84.33;101859.16;5017972;28;20124;-41
2022/04/11 00:54:34;;;;;;;32.75;14.38;;;;;;;6.02;83.24;101861.16;5019008;28;20460;-42
2022/04/11 00:56:59;;;;;;;23.50;14.27;;;;;;;6.01;83.58;101856.81;5019940;28;20033;-46
2022/04/11 00:59:25;;;;;;;34.53;14.65;;;;;;;5.98;84.75;101858.72;5018668;28;20107;-42
2022/04/11 01:01:50;;;;;;;28.13;14.10;;;;;;;5.94;83.87;101862.53;5019151;28;20029;-44
2022/04/11 01:04:26;;;;;;;27.13;14.77;;;;;;;5.93;84.46;101857.31;5018261;28;20025;-44
2022/04/11 01:06:53;;;;;;;24.73;14.98;;;;;;;5.91;84.48;101851.28;5018471;28;20399;-42
2022/04/11 01:09:19;;;;;;;28.98;15.13;;;;;;;5.90;84.92;101854.88;5018854;28;20121;-47
2022/04/11 01:11:44;;;;;;;24.85;15.05;;;;;;;5.89;86.07;101851.38;5018652;28;20455;-45
2022/04/11 01:14:09;;;;;;;26.52;15.25;;;;;;;5.86;84.37;101854.25;5018414;28;20485;-43
2022/04/11 01:16:35;;;;;;;26.23;15.15;;;;;;;5.85;86.03;101851.69;5017270;28;20568;-42
2022/04/11 01:19:00;;;;;;;27.65;16.08;;;;;;;5.81;85.62;101853.72;5017180;28;20385;-42
2022/04/11 01:21:27;;;;;;;30.90;16.13;;;;;;;5.77;85.26;101844.25;5017749;28;20037;-43
2022/04/11 01:23:52;;;;;;;27.55;15.07;;;;;;;5.74;86.70;101847.97;5016762;28;20078;-44
2022/04/11 01:26:20;;;;;;;29.50;15.95;;;;;;;5.75;84.48;101843.50;5018788;28;20033;-44
2022/04/11 01:28:48;;;;;;;28.95;15.23;;;;;;;5.71;84.62;101845.53;5001154;28;20097;-43
2022/04/11 01:31:13;;;;;;;36.42;15.80;;;;;;;5.70;86.69;101843.84;5018015;28;20165;-43
2022/04/11 01:33:38;;;;;;;29.23;16.63;;;;;;;5.70;86.65;101845.63;4999503;28;20025;-43
2022/04/11 01:36:04;;;;;;;25.67;15.95;;;;;;;5.70;87.12;101843.84;5018145;28;20055;-45
2022/04/11 01:38:29;;;;;;;30.52;15.57;;;;;;;5.70;87.16;101849.16;5018509;28;20256;-46
2022/04/11 01:40:56;;;;;;;27.17;15.70;;;;;;;5.67;87.20;101849.34;5018384;28;20067;-44
2022/04/11 01:43:22;;;;;;;30.55;15.20;;;;;;;5.65;87.16;101847.75;5020238;28;20033;-43
2022/04/11 01:45:48;;;;;;;30.30;15.52;;;;;;;5.64;87.18;101856.66;5018757;28;20353;-42
2022/04/11 01:48:13;;;;;;;30.55;16.15;;;;;;;5.61;88.30;101847.94;5020220;28;20021;-44
2022/04/11 01:50:39;;;;;;;27.50;16.42;;;;;;;5.60;87.33;101856.00;5020110;28;20049;-43
2022/04/11 01:53:12;;;;;;;30.73;15.68;;;;;;;5.57;88.23;101851.78;5002341;28;20017;-42
2022/04/11 01:55:38;;;;;;;28.38;16.08;;;;;;;5.51;87.88;101844.22;5006829;28;20099;-40
2022/04/11 01:58:05;;;;;;;33.85;16.23;;;;;;;5.51;89.11;101832.78;5020853;28;20392;-42
2022/04/11 02:00:32;;;;;;;30.20;16.10;;;;;;;5.49;87.77;101838.19;5020418;28;20492;-45
2022/04/11 02:02:59;;;;;;;27.48;15.63;;;;;;;5.48;88.91;101838.28;5019506;28;20084;-47
2022/04/11 02:05:24;;;;;;;27.58;16.13;;;;;;;5.44;89.36;101831.50;5020195;28;20025;-45
2022/04/11 02:07:49;;;;;;;32.58;16.42;;;;;;;5.40;88.52;101836.16;5019922;28;20076;-43
2022/04/11 02:10:15;;;;;;;27.00;15.38;;;;;;;5.40;88.77;101833.53;5019815;28;20025;-43
2022/04/11 02:12:40;;;;;;;26.17;16.02;;;;;;;5.38;89.97;101836.28;5020066;28;20038;-41
2022/04/11 02:15:09;;;;;;;27.92;16.02;;;;;;;5.38;90.21;101844.22;5019703;28;20041;-43
2022/04/11 02:17:35;;;;;;;29.98;16.60;;;;;;;5.34;89.65;101834.75;4991217;28;20156;-42
2022/04/11 02:20:00;;;;;;;29.17;16.50;;;;;;;5.32;89.81;101841.13;5017084;28;20029;-43
2022/04/11 02:22:25;;;;;;;27.00;15.80;;;;;;;5.31;89.86;101837.63;5019335;28;20392;-43
2022/04/11 02:24:51;;;;;;;36.22;16.15;;;;;;;5.27;90.34;101836.13;5020383;28;20113;-43
2022/04/11 02:27:16;;;;;;;46.78;16.92;;;;;;;5.24;90.37;101844.28;5018693;28;20040;-44
2022/04/11 02:29:42;;;;;;;24.25;15.88;;;;;;;5.21;90.66;101847.13;5018868;28;20128;-43
2022/04/11 02:32:07;;;;;;;32.03;15.80;;;;;;;5.17;90.84;101848.28;5020444;28;20095;-41
2022/04/11 02:34:32;;;;;;;35.63;16.73;;;;;;;5.12;89.96;101845.94;5019153;28;20029;-43
2022/04/11 02:36:58;;;;;;;32.05;16.48;;;;;;;5.10;91.28;101842.53;5019343;28;20029;-42
2022/04/11 02:39:23;;;;;;;29.65;16.10;;;;;;;5.04;91.17;101846.44;5020265;28;20108;-42
2022/04/11 02:41:48;;;;;;;33.67;16.40;;;;;;;5.01;91.12;101835.22;5020008;28;20038;-46
2022/04/11 02:44:14;;;;;;;26.00;15.63;;;;;;;4.96;91.91;101832.84;5016973;28;20033;-41
2022/04/11 02:46:42;;;;;;;31.42;17.23;;;;;;;4.93;92.23;101830.41;5019593;28;20033;-42
2022/04/11 02:49:07;;;;;;;33.20;16.85;;;;;;;4.88;92.33;101829.84;5018405;28;20357;-41
2022/04/11 02:51:33;;;;;;;28.55;17.00;;;;;;;4.86;92.95;101831.75;5019167;28;20312;-43
2022/04/11 02:53:58;;;;;;;35.17;17.58;;;;;;;4.81;92.47;101832.06;5018797;28;20074;-42
2022/04/11 02:56:23;;;;;;;28.35;16.88;;;;;;;4.79;92.84;101838.41;5018700;28;20116;-43
2022/04/11 02:58:48;;;;;;;33.63;16.17;;;;;;;4.74;93.26;101833.41;5019129;28;20068;-47
2022/04/11 03:01:14;;;;;;;28.02;16.77;;;;;;;4.69;92.71;101826.72;5018064;28;20013;-47
2022/04/11 03:03:41;;;;;;;30.02;16.80;;;;;;;4.64;94.06;101830.50;5018277;28;20037;-47
2022/04/11 03:06:06;;;;;;;32.78;17.58;;;;;;;4.58;93.73;101819.44;5018907;28;20029;-43
2022/04/11 03:08:32;;;;;;;33.67;17.77;;;;;;;4.55;94.08;101820.50;5019563;28;20368;-45
2022/04/11 03:10:57;;;;;;;30.50;17.48;;;;;;;4.52;94.56;101822.50;5019066;28;20025;-45
2022/04/11 03:13:22;;;;;;;38.30;16.65;;;;;;;4.48;94.46;101819.19;5019305;28;20339;-43
2022/04/11 03:15:48;;;;;;;28.63;17.40;;;;;;;4.43;94.10;101819.50;5017684;28;20029;-45
2022/04/11 03:18:13;;;;;;;32.80;16.95;;;;;;;4.39;94.22;101817.97;5017592;28;20549;-43
2022/04/11 03:20:38;;;;;;;30.70;17.23;;;;;;;4.35;94.47;101821.75;5018619;28;20040;-43
2022/04/11 03:23:03;;;;;;;31.58;17.35;;;;;;;4.33;96.06;101815.72;5018674;28;20040;-44
2022/04/11 03:25:29;;;;;;;31.80;17.50;;;;;;;4.29;95.18;101820.38;5019407;28;20057;-42
2022/04/11 03:27:54;;;;;;;32.50;17.95;;;;;;;4.25;95.94;101820.66;5019067;28;20479;-44
2022/04/11 03:30:19;;;;;;;28.27;17.05;;;;;;;4.18;96.03;101822.81;5017685;28;20037;-42
2022/04/11 03:32:44;;;;;;;39.80;18.20;;;;;;;4.13;96.28;101816.13;5017597;28;20103;-42
2022/04/11 03:35:10;;;;;;;34.95;18.33;;;;;;;4.09;96.54;101813.66;5018273;28;20091;-45
2022/04/11 03:37:35;;;;;;;34.65;17.50;;;;;;;4.05;97.21;101825.34;5017749;28;20361;-41
2022/04/11 03:40:01;;;;;;;27.77;16.95;;;;;;;4.03;96.71;101829.06;5019745;28;20053;-42
2022/04/11 03:42:27;;;;;;;35.75;17.38;;;;;;;3.99;96.97;101824.88;5018865;28;20052;-44
2022/04/11 03:44:52;;;;;;;38.95;18.08;;;;;;;3.96;97.71;101825.94;5017013;28;20024;-43
2022/04/11 03:47:17;;;;;;;31.40;17.52;;;;;;;3.94;97.79;101827.84;5016705;28;20018;-42
2022/04/11 03:49:43;;;;;;;31.83;17.38;;;;;;;3.90;97.64;101826.31;5017315;28;20121;-42
2022/04/11 03:52:10;;;;;;;31.00;18.00;;;;;;;3.88;98.82;101817.63;5016953;28;20045;-43
2022/04/11 03:54:35;;;;;;;29.52;16.60;;;;;;;3.85;98.65;101823.09;5018097;28;20087;-42
2022/04/11 03:57:00;;;;;;;36.38;17.25;;;;;;;3.84;99.10;101824.06;5018545;28;20125;-43
2022/04/11 03:59:26;;;;;;;34.20;18.38;;;;;;;3.82;99.63;101828.56;5017671;28;20121;-43
2022/04/11 04:01:51;;;;;;;28.95;17.67;;;;;;;3.80;99.60;101826.03;5016438;28;20029;-41
2022/04/11 04:04:16;;;;;;;31.73;17.88;;;;;;;3.78;98.58;101822.59;5016749;28;20121;-42
2022/04/11 04:06:42;;;;;;;31.17;17.40;;;;;;;3.78;98.61;101819.13;5016644;28;20024;-42
2022/04/11 04:09:07;;;;;;;33.08;17.92;;;;;;;3.78;99.51;101819.97;4984813;28;20137;-41
2022/04/11 04:11:32;;;;;;;34.60;17.85;;;;;;;3.76;99.30;101816.56;5013195;28;20037;-44
2022/04/11 04:13:58;;;;;;;35.35;17.90;;;;;;;3.76;99.08;101818.38;5017385;28;20350;-43
2022/04/11 04:16:23;;;;;;;30.27;18.23;;;;;;;3.76;99.93;101813.09;5018057;28;20083;-43
2022/04/11 04:18:49;;;;;;;33.22;17.80;;;;;;;3.76;99.96;101813.09;5017819;28;20017;-42
2022/04/11 04:21:18;;;;;;;30.88;18.40;;;;;;;3.72;99.76;101813.28;5018453;28;20415;-42
2022/04/11 04:23:44;;;;;;;40.50;18.73;;;;;;;3.70;99.98;101807.25;5016475;28;20483;-41
2022/04/11 04:26:09;;;;;;;35.17;18.95;;;;;;;3.70;100.00;101806.38;5018396;28;20041;-45
2022/04/11 04:28:35;;;;;;;34.05;18.83;;;;;;;3.65;100.00;101805.78;5017938;28;20021;-43
2022/04/11 04:31:00;;;;;;;33.22;18.35;;;;;;;3.63;100.00;101808.56;5017678;28;20048;-43
2022/04/11 04:33:25;;;;;;;37.40;19.05;;;;;;;3.61;100.00;101799.84;5017208;28;20071;-44
2022/04/11 04:35:51;;;;;;;33.53;19.00;;;;;;;3.54;100.00;101804.66;5017670;28;20366;-43
2022/04/11 04:38:16;;;;;;;33.40;18.38;;;;;;;3.52;100.00;101800.41;5017618;28;20041;-43
2022/04/11 04:40:41;;;;;;;32.70;18.75;;;;;;;3.50;100.00;101802.31;5017632;28;20025;-45
2022/04/11 04:43:08;;;;;;;36.17;18.80;;;;;;;3.47;100.00;101800.69;5018258;28;20699;-42
2022/04/11 04:45:33;;;;;;;32.35;18.15;;;;;;;3.43;100.00;101799.19;5017317;28;20444;-41
2022/04/11 04:47:58;;;;;;;33.72;18.98;;;;;;;3.41;100.00;101803.72;5016134;28;20104;-43
2022/04/11 04:50:24;;;;;;;40.17;19.77;;;;;;;3.39;100.00;101804.72;4999891;28;20049;-41
2022/04/11 04:52:49;;;;;;;36.22;19.00;;;;;;;3.36;100.00;101796.06;5016855;28;20500;-43
2022/04/11 04:55:14;;;;;;;30.17;18.33;;;;;;;3.31;100.00;101790.19;5017819;28;20037;-42
2022/04/11 04:57:40;;;;;;;37.45;18.63;;;;;;;3.34;100.00;101799.72;5019429;28;20484;-43
2022/04/11 05:00:07;;;;;;;38.38;19.58;;;;;;;3.35;100.00;101796.13;5002717;28;20480;-46
2022/04/11 05:02:39;;;;;;;35.00;18.40;;;;;;;3.37;100.00;101802.16;5020703;28;20124;-45
2022/04/11 05:05:08;;;;;;;39.70;18.85;;;;;;;3.38;100.00;101800.38;5021552;28;20048;-42
2022/04/11 05:07:34;;;;;;;34.05;18.92;;;;;;;3.36;100.00;101801.34;5020189;28;20527;-44
2022/04/11 05:10:00;;;;;;;34.42;19.08;;;;;;;3.35;100.00;101788.22;4996235;28;20042;-42
2022/04/11 05:12:26;;;;;;;37.65;18.90;;;;;;;3.36;100.00;101795.19;5020513;28;20052;-44
2022/04/11 05:14:51;;;;;;;34.47;19.45;;;;;;;3.35;100.00;101789.06;5018867;28;20033;-42
2022/04/11 05:17:16;;;;;;;43.10;19.52;;;;;;;3.39;100.00;101794.16;5020985;28;20440;-45
2022/04/11 05:19:41;;;;;;;39.40;19.27;;;;;;;3.39;100.00;101794.16;5021079;28;20048;-41
2022/04/11 05:22:07;;;;;;;36.95;19.40;;;;;;;3.41;100.00;101790.50;5002400;28;20091;-45
2022/04/11 05:24:33;;;;;;;34.08;18.77;;;;;;;3.36;100.00;101782.84;5021052;28;20067;-43
2022/04/11 05:26:58;;;;;;;36.70;19.20;;;;;;;3.43;100.00;101795.66;5021003;28;20341;-46
2022/04/11 05:29:23;;;;;;;37.30;19.67;;;;;;;3.45;100.00;101786.72;5017492;28;20043;-42
2022/04/11 05:31:48;;;;;;;32.55;20.08;;;;;;;3.49;100.00;101792.66;5019927;28;20025;-45
2022/04/11 05:34:14;;;;;;;48.15;20.38;;;;;;;3.52;100.00;101789.84;5019712;28;20549;-41
2022/04/11 05:36:39;;;;;;;36.95;19.42;;;;;;;3.60;100.00;101794.66;5017110;28;20109;-40
2022/04/11 05:39:04;;;;;;;37.85;19.23;;;;;;;3.63;100.00;101789.19;5020935;28;20049;-43
2022/04/11 05:41:30;;;;;;;35.38;19.20;;;;;;;3.70;100.00;101799.31;5021036;28;20110;-42
2022/04/11 05:43:55;;;;;;;39.38;19.38;;;;;;;3.75;100.00;101793.72;5016686;28;20562;-41
2022/04/11 05:46:20;;;;;;;31.35;17.98;;;;;;;3.83;100.00;101791.47;5017391;28;20111;-42
2022/04/11 05:48:46;;;;;;;33.13;18.55;;;;;;;3.89;100.00;101791.09;5017990;28;20423;-44
2022/04/11 05:51:11;;;;;;;32.25;17.45;;;;;;;3.96;100.00;101788.09;5018877;28;20471;-41
2022/04/11 05:53:36;;;;;;;30.73;17.30;;;;;;;4.03;99.87;101784.13;5019740;28;20017;-42
2022/04/11 05:56:02;;;;;;;35.53;17.77;;;;;;;4.07;98.28;101781.19;5021388;28;20488;-44
2022/04/11 05:58:27;;;;;;;31.45;17.33;;;;;;;4.13;99.08;101798.47;5020077;28;20041;-41
2022/04/11 06:00:52;;;;;;;40.33;18.00;;;;;;;4.16;97.68;101793.00;5020167;28;20514;-42
2022/04/11 06:03:17;;;;;;;41.20;18.35;;;;;;;4.27;98.83;101795.78;5019405;28;20045;-45
2022/04/11 06:05:43;;;;;;;35.53;17.42;;;;;;;4.35;97.95;101791.84;5019762;28;20053;-43
2022/04/11 06:08:08;;;;;;;34.67;17.08;;;;;;;4.39;95.42;101795.97;5017697;28;20166;-42
2022/04/11 06:10:33;;;;;;;32.63;17.95;;;;;;;4.48;96.79;101788.31;5019551;28;20025;-41
2022/04/11 06:12:58;;;;;;;38.58;17.63;;;;;;;4.56;95.62;101789.59;5028873;28;20040;-43
2022/04/11 06:15:24;;;;;;;31.38;16.67;;;;;;;4.66;96.10;101786.25;5019182;28;20025;-43
2022/04/11 06:17:49;;;;;;;32.05;17.35;;;;;;;4.76;96.11;101794.44;5019502;28;20447;-43
2022/04/11 06:20:14;;;;;;;31.58;16.83;;;;;;;4.84;95.57;101789.50;5018036;28;20051;-40
2022/04/11 06:22:40;;;;;;;30.67;16.40;;;;;;;4.94;95.57;101794.19;5018669;28;20097;-42
2022/04/11 06:25:08;;;;;;;32.38;16.20;;;;;;;5.02;92.75;101797.19;5020041;28;20049;-42
2022/04/11 06:27:33;;;;;;;27.95;15.27;;;;;;;5.09;91.63;101798.50;5019568;28;20080;-41
2022/04/11 06:29:59;;;;;;;33.33;15.43;;;;;;;5.21;91.81;101796.78;5019782;28;20480;-45
2022/04/11 06:32:29;;;;;;;37.22;15.63;;;;;;;5.28;91.02;101794.59;5019163;28;20086;-44
2022/04/11 06:34:54;;;;;;;33.75;15.35;;;;;;;5.39;90.95;101794.72;5008821;28;20049;-42
2022/04/11 06:37:21;;;;;;;37.65;15.40;;;;;;;5.47;89.98;101792.41;5018180;28;20048;-42
2022/04/11 06:39:46;;;;;;;33.90;15.00;;;;;;;5.57;90.60;101804.06;5015235;28;20021;-40
2022/04/11 06:42:11;;;;;;;30.63;14.70;;;;;;;5.67;90.36;101796.34;5019707;28;20075;-44
2022/04/11 06:44:38;;;;;;;30.92;15.48;;;;;;;5.78;90.71;101798.25;5017594;28;20310;-43
2022/04/11 06:47:04;;;;;;;29.05;14.50;;;;;;;5.87;89.61;101800.28;5018714;28;20040;-45
2022/04/11 06:49:29;;;;;;;30.50;14.77;;;;;;;5.97;90.12;101798.72;5018113;28;20092;-41
2022/04/11 06:51:55;;;;;;;27.65;13.85;;;;;;;6.08;87.80;101799.75;5017235;28;20092;-42
2022/04/11 06:54:21;;;;;;;27.00;13.85;;;;;;;6.19;87.94;101807.78;5018902;28;20252;-43
2022/04/11 06:56:46;;;;;;;27.85;14.13;;;;;;;6.30;87.51;101799.91;5018000;28;20033;-41
2022/04/11 06:59:11;;;;;;;27.77;13.63;;;;;;;6.44;85.98;101803.38;4999916;28;20032;-45
2022/04/11 07:01:37;;;;;;;37.22;13.95;;;;;;;6.56;86.02;101807.81;5018606;28;20068;-43
2022/04/11 07:04:02;;;;;;;33.78;14.85;;;;;;;6.70;84.45;101810.31;5018275;28;20102;-44
2022/04/11 07:06:28;;;;;;;29.73;13.68;;;;;;;6.85;84.12;101804.81;5028842;28;20033;-45
2022/04/11 07:08:53;;;;;;;27.75;13.98;;;;;;;7.02;83.11;101807.06;5019332;28;20040;-41
2022/04/11 07:11:18;;;;;;;32.42;13.73;;;;;;;7.15;80.97;101807.00;5001289;28;20061;-45
2022/04/11 07:13:44;;;;;;;23.67;13.13;;;;;;;7.24;81.02;101803.66;5017829;28;20037;-42
2022/04/11 07:16:09;;;;;;;28.65;13.38;;;;;;;7.34;82.16;101798.50;5017955;28;20105;-44
2022/04/11 07:18:35;;;;;;;27.15;13.18;;;;;;;7.48;82.72;101797.44;5017449;28;20024;-43
2022/04/11 07:21:01;;;;;;;25.05;13.70;;;;;;;7.60;83.76;101799.19;5017649;28;20036;-44
2022/04/11 07:23:27;;;;;;;25.83;13.77;;;;;;;7.75;81.73;101789.13;5018036;28;20030;-44
2022/04/11 07:25:52;;;;;;;27.85;14.55;;;;;;;7.84;82.41;101784.91;5018359;28;20452;-46
2022/04/11 07:28:17;;;;;;;27.40;13.20;;;;;;;7.99;81.69;101786.41;5017457;28;20025;-42
2022/04/11 07:30:43;;;;;;;28.17;13.32;;;;;;;8.14;81.00;101788.78;5018116;28;20456;-42
2022/04/11 07:33:09;;;;;;;20.63;11.82;;;;;;;8.23;77.86;101780.06;5017772;28;20305;-44
2022/04/11 07:35:34;;;;;;;21.25;12.23;;;;;;;8.34;78.58;101780.06;5018225;28;20028;-43
2022/04/11 07:38:00;;;;;;;23.20;12.40;;;;;;;8.43;77.37;101781.16;5016891;28;20052;-44
2022/04/11 07:40:26;;;;;;;28.00;12.98;;;;;;;8.53;78.68;101782.09;5018829;28;20025;-42
2022/04/11 07:42:52;;;;;;;23.67;13.10;;;;;;;8.68;78.20;101773.84;5018674;28;20022;-45
2022/04/11 07:45:18;;;;;;;26.80;12.77;;;;;;;8.83;78.18;101777.91;5018297;28;20032;-44
2022/04/11 07:47:44;;;;;;;29.10;13.95;;;;;;;8.94;78.55;101774.34;4998727;28;20463;-43
2022/04/11 07:50:09;;;;;;;26.55;12.63;;;;;;;9.06;75.89;101775.16;5018910;28;20065;-42
2022/04/11 07:52:42;;;;;;;24.92;13.10;;;;;;;9.19;77.25;101774.97;5017720;28;20047;-44
2022/04/11 07:55:09;;;;;;;24.05;12.75;;;;;;;9.27;76.72;101767.19;5033993;28;20711;-43
2022/04/11 07:57:35;;;;;;;21.42;12.18;;;;;;;9.38;75.23;101769.75;5019287;28;20253;-45
2022/04/11 08:00:00;;;;;;;21.80;12.60;;;;;;;9.53;76.11;101772.94;5018961;28;20144;-42
2022/04/11 08:02:26;;;;;;;21.42;12.27;;;;;;;9.65;74.92;101768.38;5018614;28;20069;-43
2022/04/11 08:04:52;;;;;;;21.38;11.85;;;;;;;9.73;74.14;101770.41;5018860;28;20025;-41
2022/04/11 08:07:18;;;;;;;28.23;13.52;;;;;;;9.88;74.84;101771.75;5017691;28;20087;-47
2022/04/11 08:09:43;;;;;;;23.45;13.52;;;;;;;10.00;71.98;101767.16;5017623;28;20550;-43
2022/04/11 08:12:09;;;;;;;22.88;11.57;;;;;;;10.02;70.70;101763.34;5018741;28;20376;-43
2022/04/11 08:14:34;;;;;;;21.95;11.20;;;;;;;10.18;71.54;101754.00;5029441;28;20233;-43
2022/04/11 08:17:03;;;;;;;20.75;11.35;;;;;;;10.30;70.70;101752.88;5019001;28;20044;-41
2022/04/11 08:19:29;;;;;;;21.85;12.18;;;;;;;10.43;72.51;101747.34;5018157;28;20308;-45
2022/04/11 08:21:55;;;;;;;23.60;11.40;;;;;;;10.57;70.95;101738.94;5017366;28;20574;-41
2022/04/11 08:24:21;;;;;;;22.67;11.63;;;;;;;10.72;71.06;101739.34;5018909;28;20033;-41
2022/04/11 08:26:46;;;;;;;22.83;10.30;;;;;;;10.75;68.40;101744.44;5017855;28;20647;-44
2022/04/11 08:29:11;;;;;;;19.25;10.85;;;;;;;10.85;68.75;101748.94;5017000;28;20843;-42
2022/04/11 08:31:37;;;;;;;18.77;10.48;;;;;;;10.96;68.19;101746.09;5019433;28;20022;-42
2022/04/11 08:34:02;;;;;;;21.88;10.63;;;;;;;10.96;67.43;101746.97;5021887;28;20476;-43
2022/04/11 08:36:28;;;;;;;20.65;10.30;;;;;;;11.05;68.67;101739.94;5022055;28;20033;-43
2022/04/11 08:38:53;;;;;;;17.95;10.25;;;;;;;11.15;71.06;101743.44;5020241;28;20136;-40
2022/04/11 08:41:19;;;;;;;22.95;10.20;;;;;;;11.24;66.61;101741.72;5022153;28;20333;-42
2022/04/11 08:43:45;;;;;;;17.00;9.45;;;;;;;11.35;65.27;101738.03;5020235;28;20159;-43
2022/04/11 08:46:13;;;;;;;20.02;9.45;;;;;;;11.48;66.72;101737.72;5022329;28;20469;-41
2022/04/11 08:48:40;;;;;;;25.67;10.82;;;;;;;11.60;65.78;101735.72;5020007;28;20021;-44
2022/04/11 08:51:06;;;;;;;17.33;10.35;;;;;;;11.68;64.50;101736.69;5020101;28;20110;-41
2022/04/11 08:53:32;;;;;;;18.73;9.90;;;;;;;11.81;65.63;101740.84;5020694;28;20037;-45
2022/04/11 08:55:57;;;;;;;22.13;10.90;;;;;;;11.96;66.72;101727.88;5020359;28;20025;-45
2022/04/11 08:58:22;;;;;;;20.65;10.63;;;;;;;12.01;65.71;101723.72;5020279;28;20116;-45
2022/04/11 09:00:47;;;;;;;24.63;8.48;;;;;;;12.14;61.66;101731.44;5020434;28;20021;-46
2022/04/11 09:03:13;;;;;;;15.13;8.85;;;;;;;12.26;63.30;101726.72;5020178;28;20065;-45
2022/04/11 09:05:38;;;;;;;18.65;8.32;;;;;;;12.39;62.31;101734.38;5020193;28;20116;-44
2022/04/11 09:08:04;;;;;;;23.75;9.30;;;;;;;12.50;62.18;101736.84;5020199;28;20021;-46
2022/04/11 09:10:37;;;;;;;15.38;8.50;;;;;;;12.60;65.18;101729.56;5021751;28;20029;-44
2022/04/11 09:13:05;;;;;;;16.10;8.90;;;;;;;12.68;63.17;101739.53;5021552;28;20472;-44
2022/04/11 09:15:39;;;;;;;13.32;7.93;;;;;;;12.76;61.69;101734.22;5020519;28;20037;-42
2022/04/11 09:18:04;;;;;;;24.67;8.00;;;;;;;12.89;60.33;101733.84;5008753;28;20104;-42
2022/04/11 09:20:30;;;;;;;14.32;7.63;;;;;;;12.99;57.45;101726.56;5017353;28;20127;-44
2022/04/11 09:22:56;;;;;;;15.90;7.45;;;;;;;13.09;56.46;101725.66;5020113;28;20328;-42
2022/04/11 09:25:24;;;;;;;14.80;7.63;;;;;;;13.20;60.02;101726.25;5020679;28;20435;-46
2022/04/11 09:28:04;;;;;;;18.85;7.60;;;;;;;13.33;56.97;101719.63;5026910;28;20026;-44
2022/04/11 09:30:32;;;;;;;18.10;7.10;;;;;;;13.40;53.64;101710.78;5021952;28;20055;-42
2022/04/11 09:32:57;;;;;;;12.98;6.95;;;;;;;13.50;54.92;101709.84;5023358;28;20055;-45
2022/04/11 09:35:26;;;;;;;15.50;6.80;;;;;;;13.56;53.85;101710.06;5023398;28;20053;-43
2022/04/11 09:38:14;;;;;;;19.65;6.72;;;;;;;13.71;55.74;101714.81;5020308;28;20275;-41
2022/04/11 09:40:45;;;;;;;12.73;6.60;;;;;;;13.84;52.96;101704.47;5027180;28;20584;-42
2022/04/11 09:43:12;;;;;;;18.92;6.50;;;;;;;13.93;49.04;101710.72;5020272;28;20463;-43
2022/04/11 09:45:45;;;;;;;12.48;6.40;;;;;;;13.99;50.16;101710.91;5018112;28;20144;-43
2022/04/11 09:48:16;;;;;;;15.27;6.65;;;;;;;14.06;51.87;101702.22;5019423;28;20152;-43
2022/04/11 09:50:41;;;;;;;16.42;6.72;;;;;;;14.16;52.31;101693.00;5020129;28;20126;-43
2022/04/11 09:53:11;;;;;;;11.98;6.15;;;;;;;14.27;49.90;101699.91;5020034;28;20108;-45
2022/04/11 09:55:37;;;;;;;14.00;6.50;;;;;;;14.36;48.09;101688.19;5003687;28;20461;-41
2022/04/11 09:58:04;;;;;;;18.27;6.90;;;;;;;14.35;47.04;101680.28;5020298;28;20021;-42
2022/04/11 10:00:32;;;;;;;13.82;5.63;;;;;;;14.46;46.38;101681.78;5020777;28;20029;-42
2022/04/11 10:02:57;;;;;;;15.00;6.07;;;;;;;14.55;44.85;101678.94;5020444;28;20427;-45
2022/04/11 10:05:24;;;;;;;12.18;6.10;;;;;;;14.67;46.11;101674.13;5020817;28;20138;-43
2022/04/11 10:07:54;;;;;;;14.40;6.70;;;;;;;14.81;46.30;101672.59;5020435;28;20021;-45
2022/04/11 10:10:20;;;;;;;18.65;6.97;;;;;;;14.89;47.33;101672.59;5021247;28;20029;-45
2022/04/11 10:12:46;;;;;;;14.95;6.63;;;;;;;14.85;45.03;101676.66;5020819;28;20482;-43
2022/04/11 10:15:12;;;;;;;21.30;6.60;;;;;;;14.97;47.58;101668.22;5019923;28;20041;-44
2022/04/11 10:17:37;;;;;;;11.85;6.15;;;;;;;15.11;46.77;101672.91;5018595;28;20048;-47
2022/04/11 10:20:03;;;;;;;14.13;6.82;;;;;;;15.26;45.80;101665.81;5020216;28;20388;-41
2022/04/11 10:22:38;;;;;;;13.60;6.03;;;;;;;15.35;44.86;101663.94;5019038;28;20496;-45
2022/04/11 10:25:06;;;;;;;12.45;5.85;;;;;;;15.41;42.38;101670.47;5020580;28;20098;-41
2022/04/11 10:27:32;;;;;;;18.00;5.85;;;;;;;15.44;41.69;101670.13;5022880;28;20160;-46
2022/04/11 10:29:59;;;;;;;13.43;6.22;;;;;;;15.49;41.63;101662.38;5018964;28;20029;-43
2022/04/11 10:32:29;;;;;;;14.95;5.93;;;;;;;15.60;42.25;101669.25;5019608;28;20535;-46
2022/04/11 10:35:10;;;;;;;16.23;6.10;;;;;;;15.63;40.35;101664.38;4992790;28;20025;-44
2022/04/11 10:37:41;;;;;;;23.92;6.30;;;;;;;15.57;40.41;101665.06;5019725;28;20187;-43
2022/04/11 10:40:15;;;;;;;19.42;5.88;;;;;;;15.56;42.54;101668.75;5020186;28;20076;-46
2022/04/11 10:43:04;;;;;;;16.45;6.00;;;;;;;15.61;42.56;101666.41;5020178;28;20144;-46
2022/04/11 10:45:39;;;;;;;10.18;5.38;;;;;;;15.66;40.03;101655.94;5020448;28;20340;-44
2022/04/11 10:48:06;;;;;;;12.25;5.35;;;;;;;15.69;40.19;101653.91;5018857;28;20040;-44
2022/04/11 10:50:35;;;;;;;14.57;5.25;;;;;;;15.79;40.65;101657.25;5020096;28;20088;-44
2022/04/11 10:53:06;;;;;;;98.65;14.48;;;;;;;15.85;38.05;101652.00;5019969;28;20078;-45
2022/04/11 10:55:32;;;;;;;23.55;6.32;;;;;;;15.80;38.08;101642.75;5020647;28;20036;-44
2022/04/11 10:57:59;;;;;;;129.77;20.10;;;;;;;15.93;38.46;101634.94;5010115;28;20034;-45
2022/04/11 11:00:27;;;;;;;14.05;5.50;;;;;;;16.02;39.28;101631.22;5019955;28;20013;-47
2022/04/11 11:02:53;;;;;;;12.82;5.82;;;;;;;16.03;38.33;101629.34;5019266;28;20071;-44
2022/04/11 11:05:30;;;;;;;10.40;5.50;;;;;;;16.10;39.08;101621.38;5020235;28;20029;-44
2022/04/11 11:08:14;;;;;;;8.80;4.88;;;;;;;16.23;37.37;101619.78;5018422;28;20026;-45
2022/04/11 11:10:59;;;;;;;9.93;5.05;;;;;;;16.30;38.19;101619.06;5019864;28;20629;-46
2022/04/11 11:13:41;;;;;;;9.38;5.07;;;;;;;16.44;38.55;101609.34;5018591;28;20025;-42